sensor_id;sensor_type;location;lat;lon;timestamp;pressure;altitude;pressure_sealevel;temperature;humidity
71567;BME280;59403;47.456;19.120;2023-05-16T00:01:50;99922.72;;;14.00;100.00
71567;BME280;59403;47.456;19.120;2023-05-16T00:04:17;99910.69;;;14.04;100.00
71567;BME280;59403;47.456;19.120;2023-05-16T00:06:44;99909.66;;;14.05;100.00
71567;BME280;59403;47.456;19.120;2023-05-16T00:09:11;99907.81;;;14.05;100.00
71567;BME280;59403;47.456;19.120;2023-05-16T00:11:38;99907.81;;;14.05;100.00
71567;BME280;59403;47.456;19.120;2023-05-16T00:14:05;99902.31;;;14.07;100.00
71567;BME280;59403;47.456;19.120;2023-05-16T00:18:58;99887.53;;;14.04;100.00
71567;BME280;59403;47.456;19.120;2023-05-16T00:21:26;99895.16;;;14.07;100.00
71567;BME280;59403;47.456;19.120;2023-05-16T00:23:53;99902.31;;;14.07;100.00
71567;BME280;59403;47.456;19.120;2023-05-16T00:26:20;99899.19;;;14.03;100.00
71567;BME280;59403;47.456;19.120;2023-05-16T00:28:49;99895.06;;;14.01;100.00
71567;BME280;59403;47.456;19.120;2023-05-16T00:31:16;99892.78;;;13.98;100.00
71567;BME280;59403;47.456;19.120;2023-05-16T00:33:43;99880.88;;;13.94;100.00
71567;BME280;59403;47.456;19.120;2023-05-16T00:36:11;99888.84;;;13.94;100.00
71567;BME280;59403;47.456;19.120;2023-05-16T00:38:38;99887.66;;;13.96;100.00
71567;BME280;59403;47.456;19.120;2023-05-16T00:41:05;99896.28;;;13.98;100.00
71567;BME280;59403;47.456;19.120;2023-05-16T00:43:31;99898.31;;;13.96;100.00
71567;BME280;59403;47.456;19.120;2023-05-16T00:45:59;99904.63;;;13.95;100.00
71567;BME280;59403;47.456;19.120;2023-05-16T00:48:26;99898.06;;;13.91;100.00
71567;BME280;59403;47.456;19.120;2023-05-16T00:50:53;99900.91;;;13.90;100.00
71567;BME280;59403;47.456;19.120;2023-05-16T00:53:22;99904.97;;;13.86;100.00
71567;BME280;59403;47.456;19.120;2023-05-16T00:55:50;99910.28;;;13.86;100.00
71567;BME280;59403;47.456;19.120;2023-05-16T00:58:18;99912.06;;;13.79;100.00
71567;BME280;59403;47.456;19.120;2023-05-16T01:04:08;99916.56;;;13.78;100.00
71567;BME280;59403;47.456;19.120;2023-05-16T01:06:35;99918.56;;;13.76;100.00
71567;BME280;59403;47.456;19.120;2023-05-16T01:09:03;99923.09;;;13.76;100.00
71567;BME280;59403;47.456;19.120;2023-05-16T01:11:35;99926.75;;;13.75;100.00
71567;BME280;59403;47.456;19.120;2023-05-16T01:14:09;99923.28;;;13.74;100.00
71567;BME280;59403;47.456;19.120;2023-05-16T01:16:42;99926.09;;;13.73;100.00
71567;BME280;59403;47.456;19.120;2023-05-16T01:19:25;99927.97;;;13.72;100.00
71567;BME280;59403;47.456;19.120;2023-05-16T01:22:02;99929.22;;;13.76;100.00
71567;BME280;59403;47.456;19.120;2023-05-16T01:24:33;99913.25;;;13.76;100.00
71567;BME280;59403;47.456;19.120;2023-05-16T01:27:03;99916.94;;;13.75;100.00
71567;BME280;59403;47.456;19.120;2023-05-16T01:29:31;99930.44;;;13.74;100.00
71567;BME280;59403;47.456;19.120;2023-05-16T01:31:57;99928.34;;;13.69;100.00
71567;BME280;59403;47.456;19.120;2023-05-16T01:34:24;99926.69;;;13.68;100.00
71567;BME280;59403;47.456;19.120;2023-05-16T01:36:59;99922.38;;;13.67;100.00
71567;BME280;59403;47.456;19.120;2023-05-16T01:39:32;99923.84;;;13.69;100.00
71567;BME280;59403;47.456;19.120;2023-05-16T01:42:06;99914.41;;;13.67;100.00
71567;BME280;59403;47.456;19.120;2023-05-16T01:44:39;99896.78;;;13.66;100.00
71567;BME280;59403;47.456;19.120;2023-05-16T01:47:11;99894.06;;;13.59;100.00
71567;BME280;59403;47.456;19.120;2023-05-16T01:49:44;99897.91;;;13.57;100.00
71567;BME280;59403;47.456;19.120;2023-05-16T01:52:15;99893.97;;;13.53;100.00
71567;BME280;59403;47.456;19.120;2023-05-16T01:54:44;99892.13;;;13.53;100.00
71567;BME280;59403;47.456;19.120;2023-05-16T01:57:16;99886.37;;;13.50;100.00
71567;BME280;59403;47.456;19.120;2023-05-16T01:59:43;99877.97;;;13.46;100.00
71567;BME280;59403;47.456;19.120;2023-05-16T02:02:11;99871.09;;;13.37;100.00
71567;BME280;59403;47.456;19.120;2023-05-16T02:04:38;99863.56;;;13.41;100.00
71567;BME280;59403;47.456;19.120;2023-05-16T02:07:04;99861.44;;;13.36;100.00
71567;BME280;59403;47.456;19.120;2023-05-16T02:09:31;99877.06;;;13.39;100.00
71567;BME280;59403;47.456;19.120;2023-05-16T02:11:58;99881.53;;;13.39;100.00
71567;BME280;59403;47.456;19.120;2023-05-16T02:14:28;99884.41;;;13.37;100.00
71567;BME280;59403;47.456;19.120;2023-05-16T02:16:55;99888.03;;;13.36;100.00
71567;BME280;59403;47.456;19.120;2023-05-16T02:19:21;99883.94;;;13.34;100.00
71567;BME280;59403;47.456;19.120;2023-05-16T02:21:49;99882.72;;;13.36;100.00
71567;BME280;59403;47.456;19.120;2023-05-16T02:24:16;99877.41;;;13.36;100.00
71567;BME280;59403;47.456;19.120;2023-05-16T02:26:43;99857.88;;;13.29;100.00
71567;BME280;59403;47.456;19.120;2023-05-16T02:29:09;99846.66;;;13.27;100.00
71567;BME280;59403;47.456;19.120;2023-05-16T02:31:37;99844.97;;;13.26;100.00
71567;BME280;59403;47.456;19.120;2023-05-16T02:34:05;99844.97;;;13.26;100.00
71567;BME280;59403;47.456;19.120;2023-05-16T02:36:31;99845.56;;;13.22;100.00
71567;BME280;59403;47.456;19.120;2023-05-16T02:39:00;99846.28;;;13.16;100.00
71567;BME280;59403;47.456;19.120;2023-05-16T02:41:28;99840.72;;;13.11;100.00
71567;BME280;59403;47.456;19.120;2023-05-16T02:43:56;99831.72;;;13.12;100.00
71567;BME280;59403;47.456;19.120;2023-05-16T02:46:24;99842.97;;;13.14;100.00
71567;BME280;59403;47.456;19.120;2023-05-16T02:48:53;99864.06;;;13.15;100.00
71567;BME280;59403;47.456;19.120;2023-05-16T02:51:21;99867.56;;;13.16;100.00
71567;BME280;59403;47.456;19.120;2023-05-16T02:53:48;99861.41;;;13.15;100.00
71567;BME280;59403;47.456;19.120;2023-05-16T02:56:15;99858.13;;;13.13;100.00
71567;BME280;59403;47.456;19.120;2023-05-16T02:58:44;99872.59;;;13.11;100.00
71567;BME280;59403;47.456;19.120;2023-05-16T03:01:11;99877.75;;;13.12;100.00
71567;BME280;59403;47.456;19.120;2023-05-16T03:03:38;99875.25;;;13.11;100.00
71567;BME280;59403;47.456;19.120;2023-05-16T03:06:07;99870.13;;;13.09;100.00
71567;BME280;59403;47.456;19.120;2023-05-16T03:08:34;99858.50;;;12.96;100.00
71567;BME280;59403;47.456;19.120;2023-05-16T03:11:01;99850.78;;;13.01;100.00
71567;BME280;59403;47.456;19.120;2023-05-16T03:13:28;99849.31;;;12.98;100.00
71567;BME280;59403;47.456;19.120;2023-05-16T03:15:55;99837.56;;;12.93;100.00
71567;BME280;59403;47.456;19.120;2023-05-16T03:18:22;99833.66;;;12.89;100.00
71567;BME280;59403;47.456;19.120;2023-05-16T03:20:49;99838.41;;;12.93;100.00
71567;BME280;59403;47.456;19.120;2023-05-16T03:23:18;99856.56;;;12.90;100.00
71567;BME280;59403;47.456;19.120;2023-05-16T03:25:45;99865.63;;;12.95;100.00
71567;BME280;59403;47.456;19.120;2023-05-16T03:28:12;99866.66;;;12.94;100.00
71567;BME280;59403;47.456;19.120;2023-05-16T03:30:39;99865.44;;;12.97;100.00
71567;BME280;59403;47.456;19.120;2023-05-16T03:33:06;99874.25;;;12.97;100.00
71567;BME280;59403;47.456;19.120;2023-05-16T03:35:34;99878.53;;;12.98;100.00
71567;BME280;59403;47.456;19.120;2023-05-16T03:38:02;99869.78;;;12.98;100.00
71567;BME280;59403;47.456;19.120;2023-05-16T03:40:30;99858.31;;;12.97;100.00
71567;BME280;59403;47.456;19.120;2023-05-16T03:42:57;99863.16;;;12.94;100.00
71567;BME280;59403;47.456;19.120;2023-05-16T03:45:24;99865.06;;;13.00;100.00
71567;BME280;59403;47.456;19.120;2023-05-16T03:47:50;99859.75;;;13.00;100.00
71567;BME280;59403;47.456;19.120;2023-05-16T03:50:17;99838.31;;;13.01;100.00
71567;BME280;59403;47.456;19.120;2023-05-16T03:52:44;99849.78;;;13.02;100.00
71567;BME280;59403;47.456;19.120;2023-05-16T03:55:11;99848.50;;;12.98;100.00
71567;BME280;59403;47.456;19.120;2023-05-16T03:57:41;99853.19;;;12.96;100.00
71567;BME280;59403;47.456;19.120;2023-05-16T04:00:09;99847.41;;;12.92;100.00
71567;BME280;59403;47.456;19.120;2023-05-16T04:02:37;99843.19;;;12.98;100.00
71567;BME280;59403;47.456;19.120;2023-05-16T04:05:06;99841.34;;;12.98;100.00
71567;BME280;59403;47.456;19.120;2023-05-16T04:07:33;99835.38;;;12.96;100.00
71567;BME280;59403;47.456;19.120;2023-05-16T04:10:00;99852.59;;;13.00;100.00
71567;BME280;59403;47.456;19.120;2023-05-16T04:12:27;99859.59;;;13.01;100.00
71567;BME280;59403;47.456;19.120;2023-05-16T04:14:55;99857.84;;;12.94;100.00
71567;BME280;59403;47.456;19.120;2023-05-16T04:17:22;99859.44;;;13.03;100.00
71567;BME280;59403;47.456;19.120;2023-05-16T04:19:49;99864.37;;;13.06;100.00
71567;BME280;59403;47.456;19.120;2023-05-16T04:22:16;99870.06;;;13.03;100.00
71567;BME280;59403;47.456;19.120;2023-05-16T04:24:43;99860.06;;;13.05;100.00
71567;BME280;59403;47.456;19.120;2023-05-16T04:27:10;99849.78;;;13.02;100.00
71567;BME280;59403;47.456;19.120;2023-05-16T04:29:36;99857.69;;;13.10;100.00
71567;BME280;59403;47.456;19.120;2023-05-16T04:32:06;99880.00;;;13.15;100.00
71567;BME280;59403;47.456;19.120;2023-05-16T04:34:33;99869.03;;;13.18;100.00
71567;BME280;59403;47.456;19.120;2023-05-16T04:37:02;99872.16;;;13.22;100.00
71567;BME280;59403;47.456;19.120;2023-05-16T04:39:29;99873.13;;;13.21;100.00
71567;BME280;59403;47.456;19.120;2023-05-16T04:41:56;99879.75;;;13.25;100.00
71567;BME280;59403;47.456;19.120;2023-05-16T04:44:24;99894.78;;;13.18;100.00
71567;BME280;59403;47.456;19.120;2023-05-16T04:46:51;99886.09;;;13.24;100.00
71567;BME280;59403;47.456;19.120;2023-05-16T04:49:19;99879.34;;;13.28;100.00
71567;BME280;59403;47.456;19.120;2023-05-16T04:51:46;99892.47;;;13.29;100.00
71567;BME280;59403;47.456;19.120;2023-05-16T04:54:13;99893.69;;;13.27;100.00
71567;BME280;59403;47.456;19.120;2023-05-16T04:56:40;99893.22;;;13.23;100.00
71567;BME280;59403;47.456;19.120;2023-05-16T04:59:07;99897.91;;;13.21;100.00
71567;BME280;59403;47.456;19.120;2023-05-16T05:01:34;99893.22;;;13.23;100.00
71567;BME280;59403;47.456;19.120;2023-05-16T05:04:01;99896.16;;;13.28;100.00
71567;BME280;59403;47.456;19.120;2023-05-16T05:06:29;99894.78;;;13.32;100.00
71567;BME280;59403;47.456;19.120;2023-05-16T05:08:56;99889.44;;;13.32;100.00
71567;BME280;59403;47.456;19.120;2023-05-16T05:11:23;99897.06;;;13.35;100.00
71567;BME280;59403;47.456;19.120;2023-05-16T05:13:51;99898.50;;;13.38;100.00
71567;BME280;59403;47.456;19.120;2023-05-16T05:16:18;99901.81;;;13.40;100.00
71567;BME280;59403;47.456;19.120;2023-05-16T05:18:45;99905.09;;;13.42;100.00
71567;BME280;59403;47.456;19.120;2023-05-16T05:21:12;99901.25;;;13.44;100.00
71567;BME280;59403;47.456;19.120;2023-05-16T05:23:40;99908.22;;;13.45;100.00
71567;BME280;59403;47.456;19.120;2023-05-16T05:26:07;99902.44;;;13.42;100.00
71567;BME280;59403;47.456;19.120;2023-05-16T05:28:34;99894.47;;;13.42;100.00
71567;BME280;59403;47.456;19.120;2023-05-16T05:31:02;99891.25;;;13.46;100.00
71567;BME280;59403;47.456;19.120;2023-05-16T05:33:30;99893.72;;;13.48;100.00
71567;BME280;59403;47.456;19.120;2023-05-16T05:35:57;99900.03;;;13.47;100.00
71567;BME280;59403;47.456;19.120;2023-05-16T05:38:24;99900.44;;;13.44;100.00
71567;BME280;59403;47.456;19.120;2023-05-16T05:40:52;99890.88;;;13.49;100.00
71567;BME280;59403;47.456;19.120;2023-05-16T05:43:19;99896.19;;;13.49;100.00
71567;BME280;59403;47.456;19.120;2023-05-16T05:45:46;99889.66;;;13.52;100.00
71567;BME280;59403;47.456;19.120;2023-05-16T05:48:13;99888.03;;;13.51;100.00
71567;BME280;59403;47.456;19.120;2023-05-16T05:50:39;99883.88;;;13.48;100.00
71567;BME280;59403;47.456;19.120;2023-05-16T05:53:06;99891.72;;;13.50;100.00
71567;BME280;59403;47.456;19.120;2023-05-16T05:55:33;99895.81;;;13.52;100.00
71567;BME280;59403;47.456;19.120;2023-05-16T05:58:02;99902.50;;;13.48;100.00
71567;BME280;59403;47.456;19.120;2023-05-16T06:00:28;99898.84;;;13.49;100.00
71567;BME280;59403;47.456;19.120;2023-05-16T06:02:55;99902.50;;;13.48;100.00
71567;BME280;59403;47.456;19.120;2023-05-16T06:05:22;99897.03;;;13.50;100.00
71567;BME280;59403;47.456;19.120;2023-05-16T06:07:49;99890.69;;;13.51;100.00
71567;BME280;59403;47.456;19.120;2023-05-16T06:10:16;99888.03;;;13.51;100.00
71567;BME280;59403;47.456;19.120;2023-05-16T06:12:43;99885.94;;;13.46;100.00
71567;BME280;59403;47.456;19.120;2023-05-16T06:15:11;99865.78;;;13.37;100.00
71567;BME280;59403;47.456;19.120;2023-05-16T06:17:38;99880.78;;;13.45;100.00
71567;BME280;59403;47.456;19.120;2023-05-16T06:20:07;99876.28;;;13.45;100.00
71567;BME280;59403;47.456;19.120;2023-05-16T06:22:34;99872.19;;;13.43;100.00
71567;BME280;59403;47.456;19.120;2023-05-16T06:25:01;99874.91;;;13.49;100.00
71567;BME280;59403;47.456;19.120;2023-05-16T06:27:27;99871.87;;;13.52;100.00
71567;BME280;59403;47.456;19.120;2023-05-16T06:29:54;99871.87;;;13.52;100.00
71567;BME280;59403;47.456;19.120;2023-05-16T06:32:23;99878.41;;;13.50;100.00
71567;BME280;59403;47.456;19.120;2023-05-16T06:34:49;99869.97;;;13.46;100.00
71567;BME280;59403;47.456;19.120;2023-05-16T06:37:16;99879.41;;;13.49;100.00
71567;BME280;59403;47.456;19.120;2023-05-16T06:39:43;99872.19;;;13.43;100.00
71567;BME280;59403;47.456;19.120;2023-05-16T06:42:10;99875.19;;;13.40;100.00
71567;BME280;59403;47.456;19.120;2023-05-16T06:44:37;99868.88;;;13.41;100.00
71567;BME280;59403;47.456;19.120;2023-05-16T06:47:04;99871.75;;;13.39;100.00
71567;BME280;59403;47.456;19.120;2023-05-16T06:49:32;99880.78;;;13.45;100.00
71567;BME280;59403;47.456;19.120;2023-05-16T06:51:59;99878.94;;;13.45;100.00
71567;BME280;59403;47.456;19.120;2023-05-16T06:54:26;99872.00;;;13.44;100.00
71567;BME280;59403;47.456;19.120;2023-05-16T06:56:53;99880.78;;;13.45;100.00
71567;BME280;59403;47.456;19.120;2023-05-16T06:59:19;99880.97;;;13.43;100.00
71567;BME280;59403;47.456;19.120;2023-05-16T07:01:46;99888.75;;;13.45;100.00
71567;BME280;59403;47.456;19.120;2023-05-16T07:04:13;99902.50;;;13.48;100.00
71567;BME280;59403;47.456;19.120;2023-05-16T07:06:42;99890.44;;;13.46;100.00
71567;BME280;59403;47.456;19.120;2023-05-16T07:09:09;99889.59;;;13.45;100.00
71567;BME280;59403;47.456;19.120;2023-05-16T07:11:35;99886.03;;;13.38;100.00
71567;BME280;59403;47.456;19.120;2023-05-16T07:14:02;99878.44;;;13.35;100.00
71567;BME280;59403;47.456;19.120;2023-05-16T07:16:29;99880.53;;;13.40;100.00
71567;BME280;59403;47.456;19.120;2023-05-16T07:18:57;99877.22;;;13.38;100.00
71567;BME280;59403;47.456;19.120;2023-05-16T07:21:24;99867.47;;;13.45;100.00
71567;BME280;59403;47.456;19.120;2023-05-16T07:23:52;99862.06;;;13.53;100.00
71567;BME280;59403;47.456;19.120;2023-05-16T07:26:19;99865.63;;;13.60;100.00
71567;BME280;59403;47.456;19.120;2023-05-16T07:28:48;99856.41;;;13.62;100.00
71567;BME280;59403;47.456;19.120;2023-05-16T07:31:15;99854.38;;;13.64;100.00
71567;BME280;59403;47.456;19.120;2023-05-16T07:33:42;99854.84;;;13.68;100.00
71567;BME280;59403;47.456;19.120;2023-05-16T07:36:11;99850.16;;;13.70;100.00
71567;BME280;59403;47.456;19.120;2023-05-16T07:38:38;99851.97;;;13.69;100.00
71567;BME280;59403;47.456;19.120;2023-05-16T07:41:07;99854.84;;;13.68;100.00
71567;BME280;59403;47.456;19.120;2023-05-16T07:43:34;99861.53;;;13.64;100.00
71567;BME280;59403;47.456;19.120;2023-05-16T07:46:01;99853.00;;;13.68;100.00
71567;BME280;59403;47.456;19.120;2023-05-16T07:48:28;99863.47;;;13.70;100.00
71567;BME280;59403;47.456;19.120;2023-05-16T07:50:57;99855.72;;;13.75;100.00
71567;BME280;59403;47.456;19.120;2023-05-16T07:53:24;99857.81;;;13.80;100.00
71567;BME280;59403;47.456;19.120;2023-05-16T07:55:51;99851.47;;;13.81;100.00
71567;BME280;59403;47.456;19.120;2023-05-16T08:05:20;99850.69;;;13.87;100.00
71567;BME280;59403;47.456;19.120;2023-05-16T08:07:57;99843.00;;;13.92;100.00
71567;BME280;59403;47.456;19.120;2023-05-16T08:11:08;99835.25;;;13.97;100.00
71567;BME280;59403;47.456;19.120;2023-05-16T08:13:48;99849.69;;;14.09;100.00
71567;BME280;59403;47.456;19.120;2023-05-16T08:16:21;99846.22;;;14.15;100.00
71567;BME280;59403;47.456;19.120;2023-05-16T08:18:48;99844.59;;;14.14;100.00
71567;BME280;59403;47.456;19.120;2023-05-16T08:21:19;99858.16;;;14.19;100.00
71567;BME280;59403;47.456;19.120;2023-05-16T08:23:46;99843.19;;;14.18;100.00
71567;BME280;59403;47.456;19.120;2023-05-16T08:26:16;99838.69;;;14.18;100.00
71567;BME280;59403;47.456;19.120;2023-05-16T08:28:44;99840.34;;;14.19;100.00
71567;BME280;59403;47.456;19.120;2023-05-16T08:31:21;99842.19;;;14.19;100.00
71567;BME280;59403;47.456;19.120;2023-05-16T08:40:15;99834.63;;;14.22;100.00
71567;BME280;59403;47.456;19.120;2023-05-16T08:42:43;99830.59;;;14.26;100.00
71567;BME280;59403;47.456;19.120;2023-05-16T08:45:13;99800.56;;;14.18;100.00
71567;BME280;59403;47.456;19.120;2023-05-16T08:47:41;99831.03;;;14.30;100.00
71567;BME280;59403;47.456;19.120;2023-05-16T08:50:13;99831.75;;;14.24;100.00
71567;BME280;59403;47.456;19.120;2023-05-16T08:52:41;99834.00;;;14.20;100.00
71567;BME280;59403;47.456;19.120;2023-05-16T09:05:08;99831.97;;;14.22;100.00
71567;BME280;59403;47.456;19.120;2023-05-16T09:07:40;99832.91;;;14.15;100.00
71567;BME280;59403;47.456;19.120;2023-05-16T09:10:10;99827.94;;;14.26;100.00
71567;BME280;59403;47.456;19.120;2023-05-16T09:12:40;99828.91;;;14.25;100.00
71567;BME280;59403;47.456;19.120;2023-05-16T09:15:13;99828.91;;;14.25;100.00
71567;BME280;59403;47.456;19.120;2023-05-16T09:17:45;99820.47;;;14.22;100.00
71567;BME280;59403;47.456;19.120;2023-05-16T09:23:26;99828.47;;;14.22;100.00
71567;BME280;59403;47.456;19.120;2023-05-16T09:25:59;99833.06;;;14.28;100.00
71567;BME280;59403;47.456;19.120;2023-05-16T09:28:29;99824.69;;;14.31;100.00
71567;BME280;59403;47.456;19.120;2023-05-16T09:30:57;99818.16;;;14.33;100.00
71567;BME280;59403;47.456;19.120;2023-05-16T09:33:27;99821.22;;;14.37;100.00
71567;BME280;59403;47.456;19.120;2023-05-16T09:35:58;99817.78;;;14.43;100.00
71567;BME280;59403;47.456;19.120;2023-05-16T09:38:28;99824.59;;;14.45;100.00
71567;BME280;59403;47.456;19.120;2023-05-16T09:40:54;99812.66;;;14.41;100.00
71567;BME280;59403;47.456;19.120;2023-05-16T09:43:25;99823.13;;;14.43;100.00
71567;BME280;59403;47.456;19.120;2023-05-16T09:45:52;99823.94;;;14.43;100.00
71567;BME280;59403;47.456;19.120;2023-05-16T09:48:20;99832.31;;;14.40;100.00
71567;BME280;59403;47.456;19.120;2023-05-16T09:50:49;99819.19;;;14.39;100.00
71567;BME280;59403;47.456;19.120;2023-05-16T09:53:17;99802.97;;;14.34;100.00
71567;BME280;59403;47.456;19.120;2023-05-16T09:55:45;99810.81;;;14.42;100.00
71567;BME280;59403;47.456;19.120;2023-05-16T09:58:16;99818.41;;;14.45;100.00
71567;BME280;59403;47.456;19.120;2023-05-16T10:00:44;99813.50;;;14.42;100.00
71567;BME280;59403;47.456;19.120;2023-05-16T10:03:12;99829.47;;;14.42;100.00
71567;BME280;59403;47.456;19.120;2023-05-16T10:05:40;99828.00;;;14.39;100.00
71567;BME280;59403;47.456;19.120;2023-05-16T10:08:10;99826.37;;;14.38;100.00
71567;BME280;59403;47.456;19.120;2023-05-16T10:10:37;99816.53;;;14.39;100.00
71567;BME280;59403;47.456;19.120;2023-05-16T10:13:08;99824.31;;;14.40;100.00
71567;BME280;59403;47.456;19.120;2023-05-16T10:15:36;99822.69;;;14.39;100.00
71567;BME280;59403;47.456;19.120;2023-05-16T10:18:05;99811.59;;;14.36;100.00
71567;BME280;59403;47.456;19.120;2023-05-16T10:20:38;99800.75;;;14.37;100.00
71567;BME280;59403;47.456;19.120;2023-05-16T10:23:08;99795.97;;;14.26;100.00
71567;BME280;59403;47.456;19.120;2023-05-16T10:25:38;99796.84;;;14.33;100.00
71567;BME280;59403;47.456;19.120;2023-05-16T10:28:08;99801.34;;;14.33;100.00
71567;BME280;59403;47.456;19.120;2023-05-16T10:30:40;99794.97;;;14.34;100.00
71567;BME280;59403;47.456;19.120;2023-05-16T10:33:09;99787.41;;;14.37;100.00
71567;BME280;59403;47.456;19.120;2023-05-16T10:35:37;99789.69;;;14.40;100.00
71567;BME280;59403;47.456;19.120;2023-05-16T10:38:05;99780.25;;;14.38;100.00
71567;BME280;59403;47.456;19.120;2023-05-16T10:40:34;99782.31;;;14.42;100.00
71567;BME280;59403;47.456;19.120;2023-05-16T10:43:02;99782.53;;;14.41;100.00
71567;BME280;59403;47.456;19.120;2023-05-16T10:45:31;99787.00;;;14.40;100.00
71567;BME280;59403;47.456;19.120;2023-05-16T10:47:59;99770.44;;;14.38;100.00
71567;BME280;59403;47.456;19.120;2023-05-16T10:50:36;99771.28;;;14.45;100.00
71567;BME280;59403;47.456;19.120;2023-05-16T10:53:31;99760.62;;;14.45;100.00
71567;BME280;59403;47.456;19.120;2023-05-16T10:56:08;99758.56;;;14.47;100.00
71567;BME280;59403;47.456;19.120;2023-05-16T10:58:43;99759.81;;;14.45;100.00
71567;BME280;59403;47.456;19.120;2023-05-16T11:01:26;99764.94;;;14.46;100.00
71567;BME280;59403;47.456;19.120;2023-05-16T11:04:14;99756.53;;;14.49;100.00
71567;BME280;59403;47.456;19.120;2023-05-16T11:06:51;99755.75;;;14.55;100.00
71567;BME280;59403;47.456;19.120;2023-05-16T11:09:25;99751.06;;;14.57;100.00
71567;BME280;59403;47.456;19.120;2023-05-16T11:11:59;99751.66;;;14.59;100.00
71567;BME280;59403;47.456;19.120;2023-05-16T11:14:33;99741.06;;;14.66;100.00
71567;BME280;59403;47.456;19.120;2023-05-16T11:17:29;99742.09;;;14.71;100.00
71567;BME280;59403;47.456;19.120;2023-05-16T11:20:25;99725.72;;;14.81;100.00
71567;BME280;59403;47.456;19.120;2023-05-16T11:23:17;99715.47;;;14.85;100.00
71567;BME280;59403;47.456;19.120;2023-05-16T11:25:51;99708.09;;;14.87;100.00
71567;BME280;59403;47.456;19.120;2023-05-16T11:28:54;99703.00;;;14.92;100.00
71567;BME280;59403;47.456;19.120;2023-05-16T11:31:31;99693.94;;;14.93;100.00
71567;BME280;59403;47.456;19.120;2023-05-16T11:34:00;99690.06;;;14.95;100.00
71567;BME280;59403;47.456;19.120;2023-05-16T11:36:33;99689.66;;;14.92;100.00
71567;BME280;59403;47.456;19.120;2023-05-16T11:39:05;99695.00;;;14.92;100.00
71567;BME280;59403;47.456;19.120;2023-05-16T11:41:34;99696.03;;;14.91;100.00
71567;BME280;59403;47.456;19.120;2023-05-16T11:46:40;99683.06;;;14.88;100.00
71567;BME280;59403;47.456;19.120;2023-05-16T11:49:09;99691.28;;;14.93;100.00
71567;BME280;59403;47.456;19.120;2023-05-16T11:51:44;99689.44;;;15.00;100.00
71567;BME280;59403;47.456;19.120;2023-05-16T11:54:25;99679.41;;;15.02;100.00
71567;BME280;59403;47.456;19.120;2023-05-16T11:57:01;99694.81;;;15.13;100.00
71567;BME280;59403;47.456;19.120;2023-05-16T11:59:33;99688.66;;;15.19;100.00
71567;BME280;59403;47.456;19.120;2023-05-16T12:02:02;99686.03;;;15.25;100.00
71567;BME280;59403;47.456;19.120;2023-05-16T12:04:32;99680.91;;;15.30;100.00
71567;BME280;59403;47.456;19.120;2023-05-16T12:07:10;99662.81;;;15.19;100.00
71567;BME280;59403;47.456;19.120;2023-05-16T12:09:41;99670.00;;;15.19;100.00
71567;BME280;59403;47.456;19.120;2023-05-16T12:12:09;99673.50;;;15.19;100.00
71567;BME280;59403;47.456;19.120;2023-05-16T12:14:44;99676.97;;;15.20;100.00
71567;BME280;59403;47.456;19.120;2023-05-16T12:17:14;99662.81;;;15.26;100.00
71567;BME280;59403;47.456;19.120;2023-05-16T12:19:43;99670.44;;;15.29;100.00
71567;BME280;59403;47.456;19.120;2023-05-16T12:22:15;99675.75;;;15.29;100.00
71567;BME280;59403;47.456;19.120;2023-05-16T12:24:42;99659.75;;;15.29;100.00
71567;BME280;59403;47.456;19.120;2023-05-16T12:27:10;99679.06;;;15.37;100.00
71567;BME280;59403;47.456;19.120;2023-05-16T12:29:38;99685.81;;;15.33;100.00
71567;BME280;59403;47.456;19.120;2023-05-16T12:32:06;99694.03;;;15.32;100.00
71567;BME280;59403;47.456;19.120;2023-05-16T12:34:33;99688.91;;;15.30;100.00
71567;BME280;59403;47.456;19.120;2023-05-16T12:37:02;99694.03;;;15.25;100.00
71567;BME280;59403;47.456;19.120;2023-05-16T12:39:35;99683.78;;;15.29;100.00
71567;BME280;59403;47.456;19.120;2023-05-16T12:42:04;99678.63;;;15.34;100.00
71567;BME280;59403;47.456;19.120;2023-05-16T12:44:32;99675.56;;;15.37;100.00
71567;BME280;59403;47.456;19.120;2023-05-16T12:46:58;99672.50;;;15.40;100.00
71567;BME280;59403;47.456;19.120;2023-05-16T12:49:25;99679.66;;;15.39;100.00
71567;BME280;59403;47.456;19.120;2023-05-16T12:51:53;99686.22;;;15.37;100.00
71567;BME280;59403;47.456;19.120;2023-05-16T12:54:21;99680.06;;;15.36;100.00
71567;BME280;59403;47.456;19.120;2023-05-16T12:56:48;99682.16;;;15.41;100.00
71567;BME280;59403;47.456;19.120;2023-05-16T12:59:15;99677.25;;;15.44;100.00
71567;BME280;59403;47.456;19.120;2023-05-16T13:01:43;99678.88;;;15.45;100.00
71567;BME280;59403;47.456;19.120;2023-05-16T13:04:10;99672.91;;;15.50;100.00
71567;BME280;59403;47.456;19.120;2023-05-16T13:06:42;99668.38;;;15.50;100.00
71567;BME280;59403;47.456;19.120;2023-05-16T13:09:12;99668.59;;;15.49;100.00
71567;BME280;59403;47.456;19.120;2023-05-16T13:11:41;99662.66;;;15.47;100.00
71567;BME280;59403;47.456;19.120;2023-05-16T13:14:08;99667.16;;;15.46;100.00
71567;BME280;59403;47.456;19.120;2023-05-16T13:16:35;99654.62;;;15.47;100.00
71567;BME280;59403;47.456;19.120;2023-05-16T13:19:02;99649.09;;;15.48;100.00
71567;BME280;59403;47.456;19.120;2023-05-16T13:21:32;99641.09;;;15.48;100.00
71567;BME280;59403;47.456;19.120;2023-05-16T13:24:07;99626.94;;;15.54;100.00
71567;BME280;59403;47.456;19.120;2023-05-16T13:26:36;99625.91;;;15.62;100.00